createdAt,value
2023-05-03T00:00:27.387Z,45.72
2023-05-03T00:02:57.590Z,46.62
2023-05-03T00:05:28.226Z,46.84
2023-05-03T00:07:57.207Z,47.16
2023-05-03T00:10:27.235Z,47.48
2023-05-03T00:12:56.881Z,47.38
2023-05-03T00:15:25.637Z,47.72
2023-05-03T00:17:54.176Z,48.01
2023-05-03T00:20:22.729Z,48.32
2023-05-03T00:22:51.093Z,48.27
2023-05-03T00:25:19.709Z,48.75
2023-05-03T00:27:49.495Z,48.59
2023-05-03T00:30:19.167Z,48.59
2023-05-03T00:32:47.725Z,48.34
2023-05-03T00:35:16.136Z,48.54
2023-05-03T00:37:44.536Z,48.85
2023-05-03T00:40:16.557Z,48.66
2023-05-03T00:42:44.883Z,48.64
2023-05-03T00:45:14.751Z,48.41
2023-05-03T00:47:43.638Z,48.74
2023-05-03T00:50:12.743Z,48.71
2023-05-03T00:52:41.953Z,48.68
2023-05-03T00:55:11.667Z,48.76
2023-05-03T00:57:40.122Z,47.99
2023-05-03T01:00:10.944Z,48.32
2023-05-03T01:02:41.966Z,48.51
2023-05-03T01:05:11.253Z,48.87
2023-05-03T01:07:48.920Z,48.54
2023-05-03T01:10:24.463Z,48.27
2023-05-03T01:13:00.905Z,48.58
2023-05-03T01:15:45.637Z,48.07
2023-05-03T01:18:20.122Z,48.08
2023-05-03T01:20:50.359Z,48.53
2023-05-03T01:23:34.255Z,47.97
2023-05-03T01:26:16.618Z,48.53
2023-05-03T01:28:45.149Z,48.78
2023-05-03T01:31:18.034Z,49.37
2023-05-03T01:33:55.006Z,49.75
2023-05-03T01:36:28.183Z,49.79
2023-05-03T01:38:56.718Z,50.00
2023-05-03T01:41:29.202Z,49.79
2023-05-03T01:43:58.713Z,49.88
2023-05-03T01:46:27.211Z,50.21
2023-05-03T01:48:55.685Z,50.04
2023-05-03T01:51:24.131Z,49.85
2023-05-03T01:53:52.590Z,49.97
2023-05-03T01:56:21.718Z,49.61
2023-05-03T01:58:51.648Z,49.50
2023-05-03T02:01:20.209Z,49.93
2023-05-03T02:03:48.690Z,49.21
2023-05-03T02:06:18.345Z,48.67
2023-05-03T02:08:46.777Z,48.21
2023-05-03T02:11:15.209Z,48.06
2023-05-03T02:13:43.607Z,47.81
2023-05-03T02:16:13.559Z,47.79
2023-05-03T02:18:41.965Z,47.35
2023-05-03T02:21:10.750Z,47.32
2023-05-03T02:23:39.207Z,47.70
2023-05-03T02:26:08.940Z,47.73
2023-05-03T02:28:37.319Z,47.41
2023-05-03T02:31:06.772Z,47.35
2023-05-03T02:33:36.768Z,47.74
2023-05-03T02:36:05.707Z,47.29
2023-05-03T02:38:35.190Z,47.26
2023-05-03T02:41:03.730Z,47.50
2023-05-03T02:43:32.514Z,47.11
2023-05-03T02:46:01.978Z,47.54
2023-05-03T02:48:30.617Z,47.71
2023-05-03T02:51:00.524Z,47.36
2023-05-03T02:53:29.005Z,47.49
2023-05-03T02:56:02.054Z,47.71
2023-05-03T02:58:31.158Z,47.62
2023-05-03T03:01:00.978Z,48.40
2023-05-03T03:03:31.748Z,48.78
2023-05-03T03:06:02.106Z,48.70
2023-05-03T03:08:30.831Z,49.75
2023-05-03T03:11:02.825Z,50.27
2023-05-03T03:13:31.485Z,51.07
2023-05-03T03:16:00.660Z,50.94
2023-05-03T03:18:29.074Z,50.93
2023-05-03T03:20:57.426Z,51.00
2023-05-03T03:23:27.329Z,50.97
2023-05-03T03:25:55.800Z,51.49
2023-05-03T03:28:24.252Z,51.34
2023-05-03T03:30:53.270Z,51.86
2023-05-03T03:33:25.955Z,52.23
2023-05-03T03:35:59.295Z,51.80
2023-05-03T03:38:33.755Z,51.21
2023-05-03T03:41:06.126Z,50.97
2023-05-03T03:43:34.781Z,50.59
2023-05-03T03:46:06.595Z,50.13
2023-05-03T03:48:35.554Z,50.36
2023-05-03T03:51:03.952Z,50.45
2023-05-03T03:53:40.282Z,50.23
2023-05-03T03:56:09.660Z,50.11
2023-05-03T03:58:37.980Z,49.76
2023-05-03T04:01:09.439Z,49.72
2023-05-03T04:03:38.290Z,49.84
2023-05-03T04:06:07.342Z,49.18
2023-05-03T04:08:35.901Z,48.92
2023-05-03T04:11:10.826Z,48.92
2023-05-03T04:13:42.433Z,48.87
2023-05-03T04:16:11.555Z,48.45
2023-05-03T04:18:39.965Z,48.31
2023-05-03T04:21:10.127Z,48.31
2023-05-03T04:23:39.596Z,48.42
2023-05-03T04:26:20.313Z,48.38
2023-05-03T04:28:56.853Z,48.21
2023-05-03T04:31:27.141Z,47.99
2023-05-03T04:33:56.835Z,47.93
2023-05-03T04:36:30.068Z,47.77
2023-05-03T04:39:00.360Z,47.79
2023-05-03T04:41:30.698Z,47.71
2023-05-03T04:43:59.364Z,47.60
2023-05-03T04:46:28.079Z,47.96
2023-05-03T04:48:57.718Z,47.84
2023-05-03T04:51:28.424Z,47.52
2023-05-03T04:53:59.837Z,47.55
2023-05-03T04:56:29.703Z,47.89
2023-05-03T04:59:09.479Z,47.93
2023-05-03T05:01:39.962Z,47.70
2023-05-03T05:04:09.743Z,47.62
2023-05-03T05:06:45.869Z,47.35
2023-05-03T05:09:23.669Z,47.26
2023-05-03T05:11:57.085Z,47.54
2023-05-03T05:14:31.918Z,47.49
2023-05-03T05:17:00.580Z,47.63
2023-05-03T05:19:29.037Z,47.29
2023-05-03T05:21:58.357Z,47.23
2023-05-03T05:24:33.322Z,47.23
2023-05-03T05:27:01.943Z,47.18
2023-05-03T05:29:32.719Z,47.05
2023-05-03T05:32:04.441Z,47.02
2023-05-03T05:34:43.704Z,47.00
2023-05-03T05:37:17.358Z,47.41
2023-05-03T05:39:47.245Z,46.88
2023-05-03T05:42:17.398Z,46.62
2023-05-03T05:44:48.085Z,46.06
2023-05-03T05:47:16.745Z,45.76
2023-05-03T05:49:46.692Z,45.75
2023-05-03T05:52:15.797Z,45.79
2023-05-03T05:54:44.393Z,45.48
2023-05-03T05:57:14.128Z,45.45
2023-05-03T05:59:43.199Z,45.52
2023-05-03T06:02:17.028Z,45.68
2023-05-03T06:04:47.656Z,45.57
2023-05-03T06:07:16.268Z,45.74
2023-05-03T06:09:44.723Z,45.59
2023-05-03T06:12:14.186Z,45.33
2023-05-03T06:15:00.936Z,45.22
2023-05-03T06:17:33.423Z,44.37
2023-05-03T06:20:02.179Z,43.64
2023-05-03T06:22:30.788Z,42.28
2023-05-03T06:25:01.284Z,41.37
2023-05-03T06:27:29.710Z,40.82
2023-05-03T06:29:58.781Z,38.58
2023-05-03T06:32:27.585Z,38.40
2023-05-03T06:34:59.585Z,36.96
2023-05-03T06:37:28.146Z,36.59
2023-05-03T06:39:56.531Z,36.11
2023-05-03T06:42:24.966Z,34.63
2023-05-03T06:45:06.207Z,34.53
2023-05-03T06:47:34.698Z,34.10
2023-05-03T06:50:05.040Z,33.54
2023-05-03T06:52:33.747Z,32.80
2023-05-03T06:55:02.151Z,32.22
2023-05-03T06:57:30.484Z,31.93
2023-05-03T06:59:59.009Z,31.65
2023-05-03T07:02:27.876Z,31.19
2023-05-03T07:04:56.326Z,30.56
2023-05-03T07:07:26.162Z,30.44
2023-05-03T07:09:54.507Z,30.82
2023-05-03T07:12:27.725Z,30.07
2023-05-03T07:14:56.764Z,30.19
2023-05-03T07:17:25.648Z,30.30
2023-05-03T07:19:55.684Z,29.93
2023-05-03T07:22:25.987Z,29.09
2023-05-03T07:24:55.106Z,29.37
2023-05-03T07:27:23.584Z,29.04
2023-05-03T07:29:52.341Z,28.55
2023-05-03T07:32:21.942Z,28.58
2023-05-03T07:34:50.637Z,27.83
2023-05-03T07:37:19.027Z,28.09
2023-05-03T07:39:49.326Z,27.93
2023-05-03T07:42:17.780Z,27.76
2023-05-03T07:44:46.210Z,27.21
2023-05-03T07:47:14.865Z,27.62
2023-05-03T07:49:43.334Z,27.58
2023-05-03T07:52:11.755Z,27.80
2023-05-03T07:54:40.480Z,28.69
2023-05-03T07:57:10.238Z,29.25
2023-05-03T07:59:38.869Z,29.83
2023-05-03T08:02:07.698Z,29.99
2023-05-03T08:04:36.473Z,30.25
2023-05-03T08:07:05.317Z,30.81
2023-05-03T08:09:33.692Z,30.60
2023-05-03T08:12:03.301Z,30.95
2023-05-03T08:14:33.900Z,31.89
2023-05-03T08:17:02.292Z,31.89
2023-05-03T08:19:30.719Z,31.76
2023-05-03T08:21:59.182Z,31.18
2023-05-03T08:24:27.963Z,31.94
2023-05-03T08:26:56.819Z,32.17
2023-05-03T08:29:27.034Z,31.69
2023-05-03T08:31:58.648Z,31.71
2023-05-03T08:34:27.348Z,31.21
2023-05-03T08:36:56.125Z,31.38
2023-05-03T08:39:26.946Z,31.82
2023-05-03T08:41:55.539Z,31.92
2023-05-03T08:44:25.967Z,31.77
2023-05-03T08:46:54.913Z,31.73
2023-05-03T08:49:26.333Z,31.25
2023-05-03T08:51:56.936Z,32.05
2023-05-03T08:54:25.601Z,32.13
2023-05-03T08:56:54.101Z,32.14
2023-05-03T08:59:22.610Z,31.53
2023-05-03T09:01:52.347Z,31.38
2023-05-03T09:04:22.229Z,31.41
2023-05-03T09:06:53.608Z,31.64
2023-05-03T09:09:33.095Z,31.15
2023-05-03T09:12:01.780Z,30.92
2023-05-03T09:14:30.135Z,31.32
2023-05-03T09:17:15.952Z,31.57
2023-05-03T09:20:02.460Z,31.18
2023-05-03T09:22:35.131Z,31.08
2023-05-03T09:25:04.234Z,30.44
2023-05-03T09:27:32.706Z,30.08
2023-05-03T09:30:19.384Z,30.46
2023-05-03T09:32:51.215Z,30.36
2023-05-03T09:35:19.724Z,29.84
2023-05-03T09:37:49.439Z,30.95
2023-05-03T09:40:18.971Z,30.11
2023-05-03T09:43:11.575Z,29.26
2023-05-03T09:45:40.647Z,29.54
2023-05-03T09:48:10.137Z,30.33
2023-05-03T09:50:38.971Z,29.66
2023-05-03T09:53:09.088Z,29.73
2023-05-03T09:55:38.730Z,29.39
2023-05-03T09:58:08.320Z,29.45
2023-05-03T10:00:40.632Z,29.58
2023-05-03T10:03:11.576Z,29.73
2023-05-03T10:05:47.466Z,29.09
2023-05-03T10:08:24.443Z,29.06
2023-05-03T10:10:54.586Z,28.01
2023-05-03T10:13:23.933Z,28.09
2023-05-03T10:15:57.671Z,28.21
2023-05-03T10:18:31.142Z,27.66
2023-05-03T10:21:04.868Z,27.48
2023-05-03T10:23:34.659Z,27.93
2023-05-03T10:26:17.873Z,27.72
2023-05-03T10:28:46.967Z,28.13
2023-05-03T10:31:47.032Z,26.89
2023-05-03T10:34:23.223Z,27.52
2023-05-03T10:36:54.266Z,27.03
2023-05-03T10:39:24.509Z,27.19
2023-05-03T10:42:00.515Z,27.14
2023-05-03T10:44:30.725Z,27.19
2023-05-03T10:46:59.116Z,26.44
2023-05-03T10:49:28.509Z,27.24
2023-05-03T10:51:58.691Z,26.40
2023-05-03T10:54:29.706Z,27.29
2023-05-03T10:56:58.549Z,27.04
2023-05-03T10:59:27.265Z,27.75
2023-05-03T11:01:56.158Z,27.20
2023-05-03T11:04:34.075Z,26.05
2023-05-03T11:07:02.881Z,26.38
2023-05-03T11:09:36.031Z,26.70
2023-05-03T11:12:08.830Z,27.58
2023-05-03T11:14:39.798Z,27.97
2023-05-03T11:17:10.636Z,26.27
2023-05-03T11:19:39.915Z,26.85
2023-05-03T11:22:08.325Z,26.45
2023-05-03T11:24:38.395Z,26.33
2023-05-03T11:27:08.331Z,26.71
2023-05-03T11:29:38.114Z,26.85
2023-05-03T11:32:10.835Z,26.32
2023-05-03T11:34:40.871Z,25.07
2023-05-03T11:37:11.085Z,25.60
2023-05-03T11:39:43.233Z,25.22
2023-05-03T11:42:11.772Z,26.03
2023-05-03T11:44:40.352Z,25.31
2023-05-03T11:47:09.346Z,25.45
2023-05-03T11:49:37.938Z,24.64
2023-05-03T11:52:06.519Z,25.29
2023-05-03T11:54:34.951Z,26.12
2023-05-03T11:57:14.476Z,25.81
2023-05-03T11:59:43.640Z,25.82
2023-05-03T12:02:14.615Z,25.25
2023-05-03T12:04:45.457Z,25.62
2023-05-03T12:07:18.784Z,26.14
2023-05-03T12:10:05.744Z,25.23
2023-05-03T12:12:42.573Z,26.35
2023-05-03T12:15:16.239Z,26.24
2023-05-03T12:17:49.410Z,26.49
2023-05-03T12:22:56.617Z,27.26
2023-05-03T12:25:29.002Z,27.04
2023-05-03T12:30:37.970Z,27.19
2023-05-03T12:33:10.166Z,26.86
2023-05-03T12:35:40.855Z,27.19
2023-05-03T12:38:10.385Z,26.59
2023-05-03T12:40:41.057Z,25.89
2023-05-03T12:43:11.018Z,25.50
2023-05-03T12:45:40.781Z,26.38
2023-05-03T12:48:10.096Z,26.98
2023-05-03T12:50:39.670Z,26.54
2023-05-03T12:53:10.349Z,26.54
2023-05-03T12:55:42.682Z,27.35
2023-05-03T12:58:43.181Z,27.15
2023-05-03T13:01:37.865Z,26.99
2023-05-03T13:04:00.697Z,27.37
2023-05-03T13:06:43.113Z,27.34
2023-05-03T13:09:19.216Z,27.32
2023-05-03T13:11:50.453Z,27.53
2023-05-03T13:14:20.480Z,28.23
2023-05-03T13:16:49.850Z,28.33
2023-05-03T13:19:18.826Z,27.29
2023-05-03T13:21:48.966Z,28.93
2023-05-03T13:24:17.626Z,28.72
2023-05-03T13:26:46.597Z,28.75
2023-05-03T13:29:15.120Z,29.27
2023-05-03T13:31:44.920Z,30.50
2023-05-03T13:34:13.482Z,30.58
2023-05-03T13:36:41.918Z,30.76
2023-05-03T13:39:10.614Z,30.21
2023-05-03T13:41:41.036Z,29.58
2023-05-03T13:44:09.971Z,30.05
2023-05-03T13:46:39.328Z,30.12
2023-05-03T13:49:09.729Z,30.49
2023-05-03T13:51:38.674Z,30.24
2023-05-03T13:54:08.129Z,30.17
2023-05-03T13:56:36.956Z,30.33
2023-05-03T13:59:08.637Z,30.04
2023-05-03T14:01:37.524Z,29.59
2023-05-03T14:04:06.115Z,30.15
2023-05-03T14:06:37.056Z,30.97
2023-05-03T14:09:08.160Z,30.24
2023-05-03T14:11:36.466Z,30.50
2023-05-03T14:14:04.916Z,30.68
2023-05-03T14:16:40.982Z,30.23
2023-05-03T14:19:11.636Z,30.92
2023-05-03T14:21:43.117Z,30.93
2023-05-03T14:24:11.692Z,30.79
2023-05-03T14:26:40.158Z,31.27
2023-05-03T14:29:08.638Z,31.03
2023-05-03T14:31:37.105Z,30.87
2023-05-03T14:34:05.619Z,30.65
2023-05-03T14:36:36.446Z,30.84
2023-05-03T14:39:07.256Z,31.02
2023-05-03T14:41:36.359Z,31.38
2023-05-03T14:44:04.856Z,30.87
2023-05-03T14:46:34.309Z,31.07
2023-05-03T14:49:02.821Z,31.05
2023-05-03T14:51:32.542Z,30.68
2023-05-03T14:54:01.847Z,30.92
2023-05-03T14:56:33.053Z,31.23
2023-05-03T14:59:02.260Z,31.37
2023-05-03T15:01:30.709Z,32.12
2023-05-03T15:03:59.324Z,32.26
2023-05-03T15:06:28.862Z,32.40
2023-05-03T15:08:59.586Z,32.82
2023-05-03T15:11:28.795Z,32.86
2023-05-03T15:13:58.738Z,33.20
2023-05-03T15:16:27.830Z,33.59
2023-05-03T15:18:56.314Z,33.12
2023-05-03T15:21:24.939Z,33.15
2023-05-03T15:23:54.051Z,33.97
2023-05-03T15:26:24.572Z,34.15
2023-05-03T15:28:53.343Z,33.90
2023-05-03T15:31:23.605Z,34.15
2023-05-03T15:33:52.096Z,34.48
2023-05-03T15:36:20.686Z,34.62
2023-05-03T15:38:50.455Z,34.73
2023-05-03T15:41:18.906Z,35.60
2023-05-03T15:43:47.466Z,35.17
2023-05-03T15:46:16.160Z,34.21
2023-05-03T15:48:46.144Z,34.46
2023-05-03T15:51:14.654Z,34.58
2023-05-03T15:53:43.763Z,34.66
2023-05-03T15:56:12.655Z,34.90
2023-05-03T15:58:41.190Z,34.79
2023-05-03T16:01:09.717Z,35.13
2023-05-03T16:03:38.292Z,35.34
2023-05-03T16:06:08.615Z,36.05
2023-05-03T16:08:37.052Z,36.38
2023-05-03T16:11:05.430Z,36.19
2023-05-03T16:13:33.838Z,36.09
2023-05-03T16:16:03.284Z,36.20
2023-05-03T16:18:32.065Z,36.71
2023-05-03T16:21:01.592Z,37.06
2023-05-03T16:23:31.406Z,37.17
2023-05-03T16:25:59.839Z,37.92
2023-05-03T16:28:28.198Z,37.69
2023-05-03T16:30:56.791Z,37.21
2023-05-03T16:33:25.151Z,37.38
2023-05-03T16:35:53.545Z,37.62
2023-05-03T16:38:21.894Z,37.63
2023-05-03T16:40:51.686Z,37.81
2023-05-03T16:43:20.169Z,37.77
2023-05-03T16:45:57.522Z,38.18
2023-05-03T16:48:26.420Z,38.10
2023-05-03T16:50:54.841Z,38.38
2023-05-03T16:53:23.363Z,38.25
2023-05-03T16:55:53.504Z,37.58
2023-05-03T16:58:21.986Z,37.53
2023-05-03T17:00:50.396Z,37.50
2023-05-03T17:03:19.035Z,37.75
2023-05-03T17:05:47.570Z,38.19
2023-05-03T17:08:15.953Z,38.33
2023-05-03T17:10:45.402Z,38.28
2023-05-03T17:13:16.519Z,38.42
2023-05-03T17:15:45.330Z,38.67
2023-05-03T17:18:13.905Z,38.98
2023-05-03T17:20:43.121Z,39.03
2023-05-03T17:23:11.422Z,39.44
2023-05-03T17:25:39.904Z,39.87
2023-05-03T17:28:08.678Z,40.37
2023-05-03T17:30:39.378Z,40.57
2023-05-03T17:33:08.020Z,40.61
2023-05-03T17:35:37.446Z,40.52
2023-05-03T17:38:06.171Z,40.54
2023-05-03T17:40:35.253Z,40.66
2023-05-03T17:43:03.801Z,40.78
2023-05-03T17:45:33.073Z,40.92
2023-05-03T17:48:04.024Z,41.30
2023-05-03T17:50:32.437Z,41.84
2023-05-03T17:53:01.114Z,41.88
2023-05-03T17:55:29.711Z,42.21
2023-05-03T17:57:58.032Z,42.54
2023-05-03T18:00:28.105Z,42.78
2023-05-03T18:02:58.767Z,43.24
2023-05-03T18:05:28.875Z,43.31
2023-05-03T18:07:57.312Z,43.85
2023-05-03T18:10:25.713Z,44.30
2023-05-03T18:12:55.138Z,44.57
2023-05-03T18:15:23.843Z,44.73
2023-05-03T18:17:53.056Z,45.08
2023-05-03T18:20:21.738Z,45.61
2023-05-03T18:22:51.516Z,46.00
2023-05-03T18:25:19.958Z,45.68
2023-05-03T18:27:48.339Z,45.83
2023-05-03T18:30:17.326Z,46.01
2023-05-03T18:32:45.824Z,46.45
2023-05-03T18:35:14.280Z,46.84
2023-05-03T18:37:42.656Z,47.29
2023-05-03T18:40:13.422Z,47.68
2023-05-03T18:42:41.861Z,48.05
2023-05-03T18:45:10.628Z,48.20
2023-05-03T18:47:39.064Z,48.36
2023-05-03T18:50:08.640Z,48.78
2023-05-03T18:52:37.374Z,49.04
2023-05-03T18:55:06.535Z,48.84
2023-05-03T18:57:37.170Z,49.17
2023-05-03T19:00:06.725Z,49.52
2023-05-03T19:02:35.230Z,50.05
2023-05-03T19:05:03.625Z,50.67
2023-05-03T19:07:32.310Z,51.15
2023-05-03T19:10:01.386Z,51.45
2023-05-03T19:12:30.052Z,52.15
2023-05-03T19:14:59.850Z,52.55
2023-05-03T19:17:28.332Z,53.02
2023-05-03T19:19:56.758Z,53.39
2023-05-03T19:22:25.150Z,53.67
2023-05-03T19:24:53.519Z,53.89
2023-05-03T19:27:21.940Z,54.21
2023-05-03T19:29:50.441Z,54.52
2023-05-03T19:32:20.272Z,54.59
2023-05-03T19:34:48.654Z,55.21
2023-05-03T19:37:17.229Z,55.43
2023-05-03T19:39:45.826Z,55.51
2023-05-03T19:42:14.269Z,55.55
2023-05-03T19:44:42.671Z,55.80
2023-05-03T19:47:11.090Z,56.10
2023-05-03T19:49:41.884Z,56.13
2023-05-03T19:52:11.349Z,56.19
2023-05-03T19:54:39.701Z,56.59
2023-05-03T19:57:08.436Z,56.55
2023-05-03T19:59:36.884Z,56.84
2023-05-03T20:02:05.408Z,56.99
2023-05-03T20:04:34.004Z,57.30
2023-05-03T20:07:04.047Z,57.54
2023-05-03T20:09:32.494Z,57.77
2023-05-03T20:12:02.269Z,58.22
2023-05-03T20:14:32.535Z,58.38
2023-05-03T20:17:01.599Z,58.49
2023-05-03T20:19:30.009Z,58.50
2023-05-03T20:21:58.500Z,58.82
2023-05-03T20:24:28.319Z,59.08
2023-05-03T20:26:56.761Z,59.25
2023-05-03T20:29:25.200Z,59.44
2023-05-03T20:31:54.038Z,59.12
2023-05-03T20:34:22.462Z,59.20
2023-05-03T20:36:50.866Z,59.23
2023-05-03T20:39:19.219Z,59.42
2023-05-03T20:41:48.977Z,59.74
2023-05-03T20:44:17.376Z,60.12
2023-05-03T20:46:45.805Z,60.06
2023-05-03T20:49:14.551Z,59.76
2023-05-03T20:51:42.980Z,60.33
2023-05-03T20:54:12.354Z,60.28
2023-05-03T20:56:40.707Z,60.21
2023-05-03T20:59:10.497Z,60.17
2023-05-03T21:01:41.202Z,60.39
2023-05-03T21:04:09.688Z,60.67
2023-05-03T21:06:38.412Z,60.47
2023-05-03T21:09:07.031Z,60.80
2023-05-03T21:11:35.513Z,60.30
2023-05-03T21:14:04.176Z,60.67
2023-05-03T21:16:34.044Z,60.79
2023-05-03T21:19:03.950Z,60.83
2023-05-03T21:21:33.550Z,60.91
2023-05-03T21:24:02.501Z,60.92
2023-05-03T21:26:32.604Z,60.74
2023-05-03T21:29:01.669Z,61.17
2023-05-03T21:31:30.368Z,61.53
2023-05-03T21:34:00.295Z,61.18
2023-05-03T21:36:28.927Z,61.39
2023-05-03T21:38:58.058Z,61.08
2023-05-03T21:41:26.395Z,61.51
2023-05-03T21:43:54.775Z,61.73
2023-05-03T21:46:23.215Z,61.92
2023-05-03T21:48:51.665Z,61.79
2023-05-03T21:51:22.128Z,61.97
2023-05-03T21:53:51.546Z,61.77
2023-05-03T21:56:19.974Z,62.13
2023-05-03T21:58:49.948Z,61.89
2023-05-03T22:01:20.252Z,62.07
2023-05-03T22:03:49.712Z,62.11
2023-05-03T22:06:18.236Z,61.98
2023-05-03T22:08:48.028Z,62.42
2023-05-03T22:11:16.365Z,62.17
2023-05-03T22:14:03.090Z,62.50
2023-05-03T22:16:33.566Z,62.47
2023-05-03T22:19:03.180Z,61.95
2023-05-03T22:21:31.820Z,61.91
2023-05-03T22:24:01.713Z,62.33
2023-05-03T22:26:30.170Z,62.45
2023-05-03T22:28:58.528Z,62.30
2023-05-03T22:31:27.670Z,62.23
2023-05-03T22:33:56.108Z,62.38
2023-05-03T22:36:24.574Z,62.74
2023-05-03T22:38:55.433Z,62.82
2023-05-03T22:41:25.368Z,62.88
2023-05-03T22:43:53.800Z,62.80
2023-05-03T22:46:22.273Z,63.11
2023-05-03T22:48:50.808Z,63.31
2023-05-03T22:51:19.382Z,63.26
2023-05-03T22:53:47.933Z,63.30
2023-05-03T22:56:16.453Z,63.22
2023-05-03T22:58:47.742Z,63.47
2023-05-03T23:01:16.234Z,63.32
2023-05-03T23:03:44.845Z,63.35
2023-05-03T23:06:13.952Z,63.39
2023-05-03T23:08:42.269Z,63.57
2023-05-03T23:11:10.872Z,63.59
2023-05-03T23:13:39.494Z,63.48
2023-05-03T23:16:10.503Z,63.57
2023-05-03T23:18:39.537Z,63.57
2023-05-03T23:21:07.967Z,63.49
2023-05-03T23:23:36.409Z,63.66
2023-05-03T23:26:04.955Z,63.81
2023-05-03T23:28:33.977Z,63.73
2023-05-03T23:31:02.769Z,63.93
2023-05-03T23:33:33.250Z,63.53
2023-05-03T23:36:01.662Z,63.93
2023-05-03T23:38:30.033Z,63.78
2023-05-03T23:40:58.416Z,63.78
2023-05-03T23:43:27.178Z,64.17
2023-05-03T23:45:55.732Z,64.14
2023-05-03T23:48:24.227Z,64.38
2023-05-03T23:50:54.977Z,64.33
2023-05-03T23:53:23.378Z,64.53
2023-05-03T23:55:51.709Z,64.80
2023-05-03T23:58:20.191Z,64.65
